LOT29M LUKK-EPWA
Flight info
| Callsign | LOT29M |
|---|---|
| Flight time | 1h 37m |
| Altitude | 32000 |
| Route | NUNTA DCT BUZZE DCT KARIL DCT KENIN DCT LENOV DCT ORTEB DCT KONZI DCT LOGDA |
| Aircraft | E75L/M-SDE3GILORVW/S |
Departure
| Time | 2026-05-04 13:20 |
|---|---|
| Airport | Chişinău International Airport (LUKK) |
Arrival
| Time | 2026-05-04 14:57 |
|---|---|
| Airport | Warsaw Chopin Airport (EPWA) |
| Time | Latitude | Longitude | Altitude | Speed | Heading |
|---|---|---|---|---|---|
| 2026-05-04 12:45 | 46.93360 | 28.93726 | 327 ft | 0 kts | 6° |
| 2026-05-04 13:10 | 46.93363 | 28.93727 | 355 ft | 2 kts | 6° |
| 2026-05-04 13:10 | 46.93397 | 28.93713 | 326 ft | 6 kts | 308° |
| 2026-05-04 13:10 | 46.93407 | 28.93653 | 329 ft | 7 kts | 278° |
| 2026-05-04 13:10 | 46.93414 | 28.93568 | 328 ft | 10 kts | 276° |
| 2026-05-04 13:11 | 46.93413 | 28.93498 | 329 ft | 3 kts | 230° |
| 2026-05-04 13:11 | 46.93377 | 28.93479 | 333 ft | 9 kts | 187° |
| 2026-05-04 13:11 | 46.93288 | 28.93465 | 331 ft | 16 kts | 187° |
| 2026-05-04 13:11 | 46.93173 | 28.93437 | 335 ft | 12 kts | 205° |
| 2026-05-04 13:12 | 46.93158 | 28.93369 | 337 ft | 9 kts | 277° |
| 2026-05-04 13:12 | 46.93168 | 28.93243 | 335 ft | 16 kts | 277° |
| 2026-05-04 13:12 | 46.93184 | 28.93057 | 349 ft | 21 kts | 276° |
| 2026-05-04 13:12 | 46.93203 | 28.92824 | 347 ft | 25 kts | 277° |
| 2026-05-04 13:13 | 46.93232 | 28.92555 | 352 ft | 29 kts | 280° |
| 2026-05-04 13:13 | 46.93255 | 28.92262 | 360 ft | 28 kts | 275° |
| 2026-05-04 13:13 | 46.93245 | 28.92051 | 366 ft | 17 kts | 230° |
| 2026-05-04 13:13 | 46.93143 | 28.91999 | 367 ft | 16 kts | 195° |
| 2026-05-04 13:14 | 46.93027 | 28.91989 | 371 ft | 17 kts | 179° |
| 2026-05-04 13:14 | 46.92916 | 28.91994 | 377 ft | 15 kts | 178° |
| 2026-05-04 13:14 | 46.92903 | 28.91994 | 377 ft | 0 kts | 178° |
| 2026-05-04 13:16 | 46.92895 | 28.91995 | 377 ft | 4 kts | 178° |
| 2026-05-04 13:16 | 46.92838 | 28.91997 | 380 ft | 12 kts | 179° |
| 2026-05-04 13:16 | 46.92763 | 28.91924 | 383 ft | 18 kts | 259° |
| 2026-05-04 13:16 | 46.92756 | 28.91704 | 388 ft | 25 kts | 272° |
| 2026-05-04 13:17 | 46.92755 | 28.91419 | 396 ft | 31 kts | 267° |
| 2026-05-04 13:17 | 46.92750 | 28.91191 | 400 ft | 36 kts | 269° |
| 2026-05-04 13:17 | 46.92760 | 28.90830 | 405 ft | 15 kts | 291° |
| 2026-05-04 13:17 | 46.92759 | 28.90765 | 405 ft | 6 kts | 227° |
| 2026-05-04 13:18 | 46.92738 | 28.90771 | 404 ft | 8 kts | 126° |
| 2026-05-04 13:18 | 46.92733 | 28.90795 | 405 ft | 1 kts | 94° |
| 2026-05-04 13:18 | 46.92731 | 28.90837 | 402 ft | 5 kts | 95° |
| 2026-05-04 13:18 | 46.92730 | 28.90857 | 402 ft | 0 kts | 91° |
| 2026-05-04 13:19 | 46.92730 | 28.90858 | 402 ft | 0 kts | 91° |
| 2026-05-04 13:19 | 46.92730 | 28.90863 | 402 ft | 2 kts | 90° |
| 2026-05-04 13:19 | 46.92733 | 28.90948 | 400 ft | 33 kts | 85° |
| 2026-05-04 13:19 | 46.92751 | 28.91729 | 387 ft | 118 kts | 89° |
| 2026-05-04 13:20 | 46.92783 | 28.93185 | 730 ft | 155 kts | 88° |
| 2026-05-04 13:20 | 46.92855 | 28.94661 | 1874 ft | 142 kts | 81° |
| 2026-05-04 13:20 | 46.92892 | 28.96204 | 2469 ft | 158 kts | 85° |
| 2026-05-04 13:20 | 46.92911 | 28.97853 | 3197 ft | 167 kts | 86° |
| 2026-05-04 13:21 | 46.92935 | 28.99592 | 3893 ft | 174 kts | 85° |
| 2026-05-04 13:21 | 46.93083 | 29.01353 | 4550 ft | 176 kts | 62° |
| 2026-05-04 13:21 | 46.93911 | 29.02613 | 5224 ft | 176 kts | 35° |
| 2026-05-04 13:21 | 46.94977 | 29.03518 | 5878 ft | 179 kts | 20° |
| 2026-05-04 13:22 | 46.96208 | 29.03916 | 6516 ft | 186 kts | 12° |
| 2026-05-04 13:22 | 46.97564 | 29.03871 | 6991 ft | 208 kts | 355° |
| 2026-05-04 13:22 | 46.99061 | 29.03404 | 7405 ft | 230 kts | 351° |
| 2026-05-04 13:22 | 47.00667 | 29.02775 | 7887 ft | 247 kts | 349° |
| 2026-05-04 13:23 | 47.02338 | 29.01874 | 8407 ft | 268 kts | 333° |
| 2026-05-04 13:23 | 47.03636 | 28.99778 | 9019 ft | 291 kts | 302° |
| 2026-05-04 13:23 | 47.04103 | 28.96831 | 9759 ft | 307 kts | 272° |
| 2026-05-04 13:23 | 47.03744 | 28.93714 | 10301 ft | 321 kts | 258° |
| 2026-05-04 13:24 | 47.03138 | 28.90471 | 10723 ft | 335 kts | 256° |
| 2026-05-04 13:24 | 47.02470 | 28.87185 | 11307 ft | 342 kts | 255° |
| 2026-05-04 13:24 | 47.01756 | 28.83785 | 12024 ft | 346 kts | 255° |
| 2026-05-04 13:25 | 47.00315 | 28.77005 | 13524 ft | 354 kts | 255° |
| 2026-05-04 13:25 | 46.99571 | 28.73527 | 14256 ft | 357 kts | 254° |
| 2026-05-04 13:25 | 46.98968 | 28.69998 | 14957 ft | 358 kts | 265° |
| 2026-05-04 13:25 | 46.98779 | 28.66397 | 15679 ft | 359 kts | 272° |
| 2026-05-04 13:26 | 46.98841 | 28.62725 | 16438 ft | 360 kts | 277° |
| 2026-05-04 13:26 | 46.99073 | 28.59052 | 17176 ft | 363 kts | 280° |
| 2026-05-04 13:26 | 46.99382 | 28.55363 | 17933 ft | 366 kts | 281° |
| 2026-05-04 13:26 | 46.99771 | 28.51659 | 18694 ft | 367 kts | 285° |
| 2026-05-04 13:27 | 47.00335 | 28.48019 | 19459 ft | 368 kts | 286° |
| 2026-05-04 13:27 | 47.00920 | 28.44396 | 20226 ft | 370 kts | 286° |
| 2026-05-04 13:27 | 47.01529 | 28.40700 | 20986 ft | 373 kts | 286° |
| 2026-05-04 13:27 | 47.02141 | 28.36987 | 21711 ft | 375 kts | 286° |
| 2026-05-04 13:28 | 47.02756 | 28.33240 | 22409 ft | 378 kts | 285° |
| 2026-05-04 13:28 | 47.03365 | 28.29520 | 23112 ft | 380 kts | 285° |
| 2026-05-04 13:28 | 47.03986 | 28.25723 | 23767 ft | 384 kts | 285° |
| 2026-05-04 13:28 | 47.04607 | 28.21913 | 24407 ft | 385 kts | 285° |
| 2026-05-04 13:29 | 47.05232 | 28.18069 | 25086 ft | 386 kts | 285° |
| 2026-05-04 13:29 | 47.05849 | 28.14270 | 25751 ft | 388 kts | 284° |
| 2026-05-04 13:29 | 47.06475 | 28.10402 | 26358 ft | 389 kts | 284° |
| 2026-05-04 13:29 | 47.07103 | 28.06515 | 26933 ft | 391 kts | 283° |
| 2026-05-04 13:30 | 47.07722 | 28.02670 | 27465 ft | 393 kts | 283° |
| 2026-05-04 13:30 | 47.08351 | 27.98755 | 27982 ft | 395 kts | 283° |
| 2026-05-04 13:30 | 47.08984 | 27.94799 | 28474 ft | 398 kts | 283° |
| 2026-05-04 13:30 | 47.09632 | 27.90832 | 28970 ft | 401 kts | 284° |
| 2026-05-04 13:31 | 47.10269 | 27.86816 | 29464 ft | 403 kts | 282° |
| 2026-05-04 13:31 | 47.10879 | 27.82829 | 29908 ft | 407 kts | 282° |
| 2026-05-04 13:31 | 47.11505 | 27.78708 | 30148 ft | 414 kts | 282° |
| 2026-05-04 13:31 | 47.12131 | 27.74581 | 30610 ft | 414 kts | 282° |
| 2026-05-04 13:32 | 47.12759 | 27.70441 | 31039 ft | 415 kts | 282° |
| 2026-05-04 13:32 | 47.13379 | 27.66336 | 31477 ft | 415 kts | 282° |
| 2026-05-04 13:32 | 47.14006 | 27.62180 | 31838 ft | 412 kts | 282° |
| 2026-05-04 13:32 | 47.14622 | 27.58079 | 31916 ft | 412 kts | 282° |
| 2026-05-04 13:33 | 47.15863 | 27.49799 | 31983 ft | 421 kts | 282° |
| 2026-05-04 13:33 | 47.17121 | 27.41355 | 31971 ft | 422 kts | 282° |
| 2026-05-04 13:34 | 47.18367 | 27.32948 | 31971 ft | 423 kts | 282° |
| 2026-05-04 13:34 | 47.19617 | 27.24468 | 31979 ft | 424 kts | 282° |
| 2026-05-04 13:35 | 47.21481 | 27.11732 | 31975 ft | 425 kts | 283° |
| 2026-05-04 13:36 | 47.22715 | 27.03244 | 31978 ft | 427 kts | 283° |
| 2026-05-04 13:36 | 47.23959 | 26.94647 | 31970 ft | 428 kts | 283° |
| 2026-05-04 13:37 | 47.25189 | 26.86086 | 31977 ft | 430 kts | 283° |
| 2026-05-04 13:37 | 47.26422 | 26.77463 | 31971 ft | 431 kts | 283° |
| 2026-05-04 13:38 | 47.27654 | 26.68790 | 31973 ft | 432 kts | 283° |
| 2026-05-04 13:38 | 47.28875 | 26.60152 | 31973 ft | 432 kts | 283° |
| 2026-05-04 13:39 | 47.30092 | 26.51492 | 31961 ft | 432 kts | 283° |
| 2026-05-04 13:39 | 47.31308 | 26.42783 | 31973 ft | 433 kts | 283° |
| 2026-05-04 13:40 | 47.32511 | 26.34122 | 31970 ft | 434 kts | 283° |
| 2026-05-04 13:40 | 47.33719 | 26.25370 | 31974 ft | 435 kts | 283° |
| 2026-05-04 13:41 | 47.34912 | 26.16670 | 31980 ft | 434 kts | 283° |
| 2026-05-04 13:41 | 47.36105 | 26.07928 | 31973 ft | 434 kts | 283° |
| 2026-05-04 13:42 | 47.37874 | 25.94863 | 32027 ft | 434 kts | 283° |
| 2026-05-04 13:42 | 47.39048 | 25.86127 | 32036 ft | 433 kts | 283° |
| 2026-05-04 13:43 | 47.40208 | 25.77442 | 32034 ft | 433 kts | 283° |
| 2026-05-04 13:43 | 47.41368 | 25.68697 | 32042 ft | 432 kts | 283° |
| 2026-05-04 13:44 | 47.42512 | 25.60021 | 32041 ft | 432 kts | 283° |
| 2026-05-04 13:44 | 47.43650 | 25.51343 | 32049 ft | 432 kts | 283° |
| 2026-05-04 13:45 | 47.44786 | 25.42616 | 32043 ft | 432 kts | 283° |
| 2026-05-04 13:45 | 47.45915 | 25.33900 | 32061 ft | 432 kts | 283° |
| 2026-05-04 13:46 | 47.47037 | 25.25175 | 32047 ft | 432 kts | 282° |
| 2026-05-04 13:46 | 47.48147 | 25.16499 | 32057 ft | 432 kts | 282° |
| 2026-05-04 13:47 | 47.49254 | 25.07778 | 32047 ft | 431 kts | 282° |
| 2026-05-04 13:47 | 47.50358 | 24.99037 | 32051 ft | 431 kts | 282° |
| 2026-05-04 13:48 | 47.51445 | 24.90361 | 32052 ft | 431 kts | 282° |
| 2026-05-04 13:48 | 47.52532 | 24.81637 | 32032 ft | 430 kts | 282° |
| 2026-05-04 13:49 | 47.53614 | 24.72891 | 32049 ft | 431 kts | 282° |
| 2026-05-04 13:49 | 47.54673 | 24.64283 | 32035 ft | 429 kts | 282° |
| 2026-05-04 13:50 | 47.55748 | 24.55481 | 32045 ft | 431 kts | 282° |
| 2026-05-04 13:50 | 47.56803 | 24.46800 | 32053 ft | 431 kts | 282° |
| 2026-05-04 13:51 | 47.57859 | 24.38032 | 32051 ft | 431 kts | 282° |
| 2026-05-04 13:51 | 47.58900 | 24.29339 | 32053 ft | 431 kts | 282° |
| 2026-05-04 13:52 | 47.60456 | 24.16241 | 32058 ft | 431 kts | 282° |
| 2026-05-04 13:53 | 47.61487 | 24.07481 | 32061 ft | 430 kts | 282° |
| 2026-05-04 13:53 | 47.62508 | 23.98748 | 32054 ft | 430 kts | 282° |
| 2026-05-04 13:54 | 47.64026 | 23.85663 | 32060 ft | 430 kts | 282° |
| 2026-05-04 13:55 | 47.65529 | 23.72536 | 32059 ft | 429 kts | 282° |
| 2026-05-04 13:55 | 47.67016 | 23.59416 | 32076 ft | 429 kts | 282° |
| 2026-05-04 13:56 | 47.67995 | 23.50689 | 32075 ft | 429 kts | 282° |
| 2026-05-04 13:57 | 47.69452 | 23.37599 | 32073 ft | 429 kts | 282° |
| 2026-05-04 13:58 | 47.71375 | 23.20090 | 32070 ft | 429 kts | 282° |
| 2026-05-04 13:58 | 47.72796 | 23.07000 | 32073 ft | 429 kts | 281° |
| 2026-05-04 13:59 | 47.73738 | 22.98235 | 32081 ft | 429 kts | 281° |
| 2026-05-04 14:00 | 47.75131 | 22.85148 | 32074 ft | 428 kts | 281° |
| 2026-05-04 14:00 | 47.76515 | 22.72007 | 32066 ft | 428 kts | 281° |
| 2026-05-04 14:01 | 47.77429 | 22.63246 | 32078 ft | 428 kts | 281° |
| 2026-05-04 14:02 | 47.78785 | 22.50151 | 32066 ft | 427 kts | 282° |
| 2026-05-04 14:02 | 47.80774 | 22.41934 | 32069 ft | 421 kts | 302° |
| 2026-05-04 14:02 | 47.82447 | 22.38438 | 32076 ft | 418 kts | 313° |
| 2026-05-04 14:03 | 47.84537 | 22.35434 | 32067 ft | 416 kts | 323° |
| 2026-05-04 14:03 | 47.89561 | 22.31265 | 32070 ft | 413 kts | 338° |
| 2026-05-04 14:04 | 47.97479 | 22.26151 | 32065 ft | 414 kts | 337° |
| 2026-05-04 14:04 | 48.02699 | 22.22589 | 32062 ft | 414 kts | 336° |
| 2026-05-04 14:05 | 48.09464 | 22.17113 | 32068 ft | 415 kts | 330° |
| 2026-05-04 14:06 | 48.14382 | 22.12649 | 32058 ft | 415 kts | 330° |
| 2026-05-04 14:06 | 48.19328 | 22.08141 | 32062 ft | 415 kts | 330° |
| 2026-05-04 14:07 | 48.24267 | 22.03629 | 32054 ft | 415 kts | 330° |
| 2026-05-04 14:07 | 48.29172 | 21.99141 | 32062 ft | 415 kts | 330° |
| 2026-05-04 14:08 | 48.34104 | 21.94618 | 32050 ft | 415 kts | 330° |
| 2026-05-04 14:08 | 48.39044 | 21.90076 | 32053 ft | 415 kts | 329° |
| 2026-05-04 14:09 | 48.46420 | 21.83275 | 32053 ft | 415 kts | 329° |
| 2026-05-04 14:10 | 48.53788 | 21.76457 | 32056 ft | 415 kts | 329° |
| 2026-05-04 14:10 | 48.58696 | 21.71904 | 32053 ft | 415 kts | 329° |
| 2026-05-04 14:11 | 48.63616 | 21.67328 | 32056 ft | 415 kts | 329° |
| 2026-05-04 14:11 | 48.71003 | 21.60437 | 32064 ft | 415 kts | 329° |
| 2026-05-04 14:12 | 48.75886 | 21.55869 | 32056 ft | 414 kts | 329° |
| 2026-05-04 14:13 | 48.83250 | 21.48961 | 32050 ft | 413 kts | 329° |
| 2026-05-04 14:13 | 48.88123 | 21.44375 | 32062 ft | 413 kts | 329° |
| 2026-05-04 14:14 | 48.93013 | 21.39764 | 32045 ft | 413 kts | 329° |
| 2026-05-04 14:14 | 49.00327 | 21.32845 | 32042 ft | 413 kts | 329° |
| 2026-05-04 14:15 | 49.10076 | 21.23587 | 32041 ft | 412 kts | 329° |
| 2026-05-04 14:16 | 49.17395 | 21.16607 | 32036 ft | 413 kts | 329° |
| 2026-05-04 14:17 | 49.24696 | 21.09620 | 32025 ft | 413 kts | 329° |
| 2026-05-04 14:18 | 49.32039 | 21.02756 | 32031 ft | 414 kts | 332° |
| 2026-05-04 14:19 | 49.42653 | 20.95915 | 32017 ft | 415 kts | 340° |
| 2026-05-04 14:19 | 49.48049 | 20.92847 | 32010 ft | 416 kts | 340° |
| 2026-05-04 14:20 | 49.53501 | 20.89743 | 32009 ft | 417 kts | 339° |
| 2026-05-04 14:20 | 49.58923 | 20.86646 | 32006 ft | 416 kts | 339° |
| 2026-05-04 14:21 | 49.67063 | 20.81982 | 32006 ft | 417 kts | 339° |
| 2026-05-04 14:21 | 49.72508 | 20.78854 | 31990 ft | 417 kts | 339° |
| 2026-05-04 14:22 | 49.77961 | 20.75713 | 31995 ft | 417 kts | 339° |
| 2026-05-04 14:22 | 49.83380 | 20.72582 | 31992 ft | 418 kts | 339° |
| 2026-05-04 14:23 | 49.91550 | 20.67851 | 31985 ft | 417 kts | 339° |
| 2026-05-04 14:24 | 49.97004 | 20.64684 | 31994 ft | 417 kts | 339° |
| 2026-05-04 14:24 | 50.02433 | 20.61522 | 31990 ft | 418 kts | 339° |
| 2026-05-04 14:25 | 50.07926 | 20.58489 | 31979 ft | 419 kts | 345° |
| 2026-05-04 14:25 | 50.13689 | 20.57488 | 31993 ft | 422 kts | 358° |
| 2026-05-04 14:25 | 50.16633 | 20.57669 | 31987 ft | 422 kts | 1° |
| 2026-05-04 14:26 | 50.22505 | 20.58231 | 31990 ft | 423 kts | 2° |
| 2026-05-04 14:26 | 50.28390 | 20.58841 | 31985 ft | 423 kts | 2° |
| 2026-05-04 14:27 | 50.34246 | 20.59448 | 31992 ft | 424 kts | 2° |
| 2026-05-04 14:27 | 50.40151 | 20.60062 | 31983 ft | 424 kts | 2° |
| 2026-05-04 14:28 | 50.46056 | 20.60675 | 31992 ft | 425 kts | 2° |
| 2026-05-04 14:28 | 50.51937 | 20.61289 | 31978 ft | 425 kts | 2° |
| 2026-05-04 14:29 | 50.63729 | 20.62520 | 30339 ft | 428 kts | 2° |
| 2026-05-04 14:30 | 50.66753 | 20.62838 | 29103 ft | 431 kts | 2° |
| 2026-05-04 14:30 | 50.69713 | 20.63149 | 28121 ft | 429 kts | 2° |
| 2026-05-04 14:30 | 50.75527 | 20.63760 | 27074 ft | 413 kts | 2° |
| 2026-05-04 14:31 | 50.78422 | 20.64064 | 26721 ft | 417 kts | 2° |
| 2026-05-04 14:31 | 50.84217 | 20.64675 | 25997 ft | 415 kts | 1° |
| 2026-05-04 14:32 | 50.89939 | 20.65279 | 25319 ft | 412 kts | 1° |
| 2026-05-04 14:32 | 50.92802 | 20.65583 | 24973 ft | 410 kts | 1° |
| 2026-05-04 14:32 | 50.95613 | 20.65882 | 24638 ft | 409 kts | 1° |
| 2026-05-04 14:32 | 50.98462 | 20.66184 | 24310 ft | 407 kts | 1° |
| 2026-05-04 14:33 | 51.01300 | 20.66484 | 23991 ft | 406 kts | 1° |
| 2026-05-04 14:33 | 51.04119 | 20.66784 | 23677 ft | 404 kts | 1° |
| 2026-05-04 14:33 | 51.06887 | 20.67080 | 23307 ft | 403 kts | 1° |
| 2026-05-04 14:33 | 51.09683 | 20.67379 | 22922 ft | 401 kts | 1° |
| 2026-05-04 14:34 | 51.12455 | 20.67674 | 22549 ft | 398 kts | 1° |
| 2026-05-04 14:34 | 51.15213 | 20.67968 | 22167 ft | 396 kts | 1° |
| 2026-05-04 14:34 | 51.17963 | 20.68264 | 21801 ft | 393 kts | 1° |
| 2026-05-04 14:34 | 51.20690 | 20.68556 | 21453 ft | 392 kts | 1° |
| 2026-05-04 14:35 | 51.23370 | 20.68844 | 21117 ft | 390 kts | 1° |
| 2026-05-04 14:35 | 51.26066 | 20.69276 | 20773 ft | 389 kts | 5° |
| 2026-05-04 14:35 | 51.28746 | 20.70010 | 20440 ft | 389 kts | 8° |
| 2026-05-04 14:35 | 51.31369 | 20.71025 | 20097 ft | 389 kts | 14° |
| 2026-05-04 14:36 | 51.33956 | 20.72345 | 19767 ft | 388 kts | 15° |
| 2026-05-04 14:36 | 51.36493 | 20.73681 | 19443 ft | 387 kts | 15° |
| 2026-05-04 14:36 | 51.39043 | 20.75048 | 19122 ft | 386 kts | 15° |
| 2026-05-04 14:36 | 51.41592 | 20.76416 | 18800 ft | 384 kts | 15° |
| 2026-05-04 14:37 | 51.44130 | 20.77779 | 18473 ft | 383 kts | 15° |
| 2026-05-04 14:37 | 51.46663 | 20.79142 | 18144 ft | 382 kts | 15° |
| 2026-05-04 14:37 | 51.49151 | 20.80480 | 17788 ft | 380 kts | 15° |
| 2026-05-04 14:37 | 51.51652 | 20.81826 | 17427 ft | 378 kts | 15° |
| 2026-05-04 14:38 | 51.54151 | 20.83174 | 17078 ft | 377 kts | 15° |
| 2026-05-04 14:38 | 51.56636 | 20.84517 | 16740 ft | 374 kts | 15° |
| 2026-05-04 14:38 | 51.59077 | 20.85838 | 16410 ft | 373 kts | 15° |
| 2026-05-04 14:38 | 51.61541 | 20.87167 | 16068 ft | 371 kts | 15° |
| 2026-05-04 14:39 | 51.63990 | 20.88494 | 15739 ft | 369 kts | 15° |
| 2026-05-04 14:39 | 51.66410 | 20.89854 | 15391 ft | 368 kts | 15° |
| 2026-05-04 14:39 | 51.68845 | 20.91126 | 14948 ft | 366 kts | 15° |
| 2026-05-04 14:40 | 51.73583 | 20.93606 | 14019 ft | 340 kts | 14° |
| 2026-05-04 14:40 | 51.75812 | 20.94178 | 13550 ft | 314 kts | 356° |
| 2026-05-04 14:40 | 51.77993 | 20.93876 | 13108 ft | 313 kts | 346° |
| 2026-05-04 14:40 | 51.80089 | 20.93071 | 12684 ft | 307 kts | 339° |
| 2026-05-04 14:41 | 51.82097 | 20.91988 | 12278 ft | 300 kts | 332° |
| 2026-05-04 14:41 | 51.83956 | 20.90559 | 11886 ft | 297 kts | 329° |
| 2026-05-04 14:41 | 51.87640 | 20.87524 | 11126 ft | 295 kts | 328° |
| 2026-05-04 14:42 | 51.91258 | 20.84515 | 10401 ft | 291 kts | 328° |
| 2026-05-04 14:42 | 51.93055 | 20.83018 | 10037 ft | 289 kts | 329° |
| 2026-05-04 14:42 | 51.94850 | 20.81521 | 9599 ft | 290 kts | 329° |
| 2026-05-04 14:43 | 51.96755 | 20.80419 | 9098 ft | 295 kts | 350° |
| 2026-05-04 14:43 | 51.98805 | 20.80820 | 8628 ft | 301 kts | 18° |
| 2026-05-04 14:43 | 52.00539 | 20.82713 | 8183 ft | 304 kts | 46° |
| 2026-05-04 14:43 | 52.01604 | 20.85661 | 7734 ft | 303 kts | 68° |
| 2026-05-04 14:44 | 52.02065 | 20.88912 | 7301 ft | 299 kts | 91° |
| 2026-05-04 14:44 | 52.01599 | 20.92140 | 6871 ft | 293 kts | 120° |
| 2026-05-04 14:44 | 52.00331 | 20.94643 | 6454 ft | 285 kts | 141° |
| 2026-05-04 14:44 | 51.98847 | 20.96600 | 6023 ft | 263 kts | 150° |
| 2026-05-04 14:45 | 51.97329 | 20.98088 | 5620 ft | 253 kts | 154° |
| 2026-05-04 14:45 | 51.95791 | 20.99468 | 5236 ft | 252 kts | 155° |
| 2026-05-04 14:45 | 51.94191 | 21.00409 | 5046 ft | 239 kts | 180° |
| 2026-05-04 14:45 | 51.92558 | 21.00213 | 5012 ft | 232 kts | 191° |
| 2026-05-04 14:46 | 51.90964 | 21.00346 | 4992 ft | 237 kts | 169° |
| 2026-05-04 14:46 | 51.89357 | 21.01111 | 4995 ft | 239 kts | 165° |
| 2026-05-04 14:46 | 51.87769 | 21.01961 | 4997 ft | 240 kts | 165° |
| 2026-05-04 14:46 | 51.86187 | 21.02829 | 4993 ft | 240 kts | 165° |
| 2026-05-04 14:47 | 51.84643 | 21.03700 | 5016 ft | 235 kts | 165° |
| 2026-05-04 14:47 | 51.83109 | 21.04654 | 5040 ft | 232 kts | 159° |
| 2026-05-04 14:47 | 51.81721 | 21.05752 | 5036 ft | 213 kts | 154° |
| 2026-05-04 14:47 | 51.80742 | 21.07451 | 4970 ft | 212 kts | 115° |
| 2026-05-04 14:48 | 51.80601 | 21.09771 | 4953 ft | 208 kts | 79° |
| 2026-05-04 14:48 | 51.81101 | 21.11946 | 4930 ft | 206 kts | 58° |
| 2026-05-04 14:48 | 51.81907 | 21.13877 | 4935 ft | 208 kts | 51° |
| 2026-05-04 14:48 | 51.82836 | 21.15624 | 4939 ft | 206 kts | 43° |
| 2026-05-04 14:49 | 51.83968 | 21.17037 | 4952 ft | 205 kts | 31° |
| 2026-05-04 14:49 | 51.85204 | 21.18178 | 4933 ft | 204 kts | 21° |
| 2026-05-04 14:49 | 51.86554 | 21.18875 | 4894 ft | 201 kts | 11° |
| 2026-05-04 14:49 | 51.87914 | 21.19392 | 4864 ft | 200 kts | 6° |
| 2026-05-04 14:50 | 51.89290 | 21.19380 | 4845 ft | 198 kts | 347° |
| 2026-05-04 14:50 | 51.90582 | 21.18751 | 4696 ft | 195 kts | 332° |
| 2026-05-04 14:50 | 51.91832 | 21.17902 | 4492 ft | 195 kts | 333° |
| 2026-05-04 14:50 | 51.92668 | 21.17355 | 4337 ft | 195 kts | 334° |
| 2026-05-04 14:51 | 51.93922 | 21.16531 | 4109 ft | 193 kts | 334° |
| 2026-05-04 14:51 | 51.95459 | 21.15138 | 3742 ft | 192 kts | 324° |
| 2026-05-04 14:51 | 51.96249 | 21.14423 | 3594 ft | 192 kts | 329° |
| 2026-05-04 14:51 | 51.97424 | 21.13463 | 3342 ft | 190 kts | 328° |
| 2026-05-04 14:52 | 51.98587 | 21.12424 | 3109 ft | 189 kts | 326° |
| 2026-05-04 14:52 | 51.99732 | 21.11430 | 3060 ft | 186 kts | 328° |
| 2026-05-04 14:52 | 52.00835 | 21.10476 | 3069 ft | 170 kts | 328° |
| 2026-05-04 14:52 | 52.01834 | 21.09611 | 2996 ft | 157 kts | 326° |
| 2026-05-04 14:53 | 52.02790 | 21.08771 | 3027 ft | 159 kts | 328° |
| 2026-05-04 14:53 | 52.03767 | 21.07919 | 2928 ft | 162 kts | 327° |
| 2026-05-04 14:53 | 52.04747 | 21.07064 | 2745 ft | 154 kts | 327° |
| 2026-05-04 14:53 | 52.05647 | 21.06279 | 2550 ft | 145 kts | 327° |
| 2026-05-04 14:54 | 52.06531 | 21.05508 | 2358 ft | 142 kts | 327° |
| 2026-05-04 14:54 | 52.07393 | 21.04755 | 2147 ft | 137 kts | 327° |
| 2026-05-04 14:54 | 52.08217 | 21.04032 | 1958 ft | 133 kts | 328° |
| 2026-05-04 14:54 | 52.09032 | 21.03313 | 1814 ft | 134 kts | 328° |
| 2026-05-04 14:55 | 52.09859 | 21.02607 | 1641 ft | 134 kts | 327° |
| 2026-05-04 14:55 | 52.10677 | 21.01882 | 1459 ft | 136 kts | 327° |
| 2026-05-04 14:55 | 52.11514 | 21.01152 | 1283 ft | 136 kts | 327° |
| 2026-05-04 14:55 | 52.12341 | 21.00430 | 1071 ft | 135 kts | 329° |
| 2026-05-04 14:56 | 52.13165 | 20.99706 | 916 ft | 137 kts | 329° |
| 2026-05-04 14:56 | 52.14012 | 20.98964 | 733 ft | 139 kts | 330° |
| 2026-05-04 14:56 | 52.14871 | 20.98215 | 567 ft | 141 kts | 328° |
| 2026-05-04 14:56 | 52.15743 | 20.97431 | 386 ft | 143 kts | 328° |
| 2026-05-04 14:57 | 52.16534 | 20.96727 | 339 ft | 105 kts | 337° |
| 2026-05-04 14:57 | 52.16909 | 20.96516 | 332 ft | 33 kts | 357° |
| 2026-05-04 14:57 | 52.16946 | 20.96515 | 335 ft | 0 kts | 359° |
| 2026-05-04 14:58 | 52.16974 | 20.96515 | 333 ft | 10 kts | 0° |
| 2026-05-04 14:58 | 52.17073 | 20.96543 | 335 ft | 17 kts | 41° |
| 2026-05-04 14:58 | 52.17133 | 20.96608 | 338 ft | 11 kts | 7° |
| 2026-05-04 14:59 | 52.17191 | 20.96571 | 335 ft | 10 kts | 329° |
| 2026-05-04 14:59 | 52.17262 | 20.96509 | 337 ft | 13 kts | 333° |
| 2026-05-04 14:59 | 52.17441 | 20.96436 | 349 ft | 14 kts | 55° |
| 2026-05-04 15:00 | 52.17495 | 20.96568 | 349 ft | 15 kts | 46° |
| 2026-05-04 15:00 | 52.17552 | 20.96702 | 350 ft | 13 kts | 59° |
| 2026-05-04 15:00 | 52.17601 | 20.96833 | 353 ft | 14 kts | 57° |
| 2026-05-04 15:01 | 52.17558 | 20.97005 | 354 ft | 14 kts | 152° |
| 2026-05-04 15:01 | 52.17457 | 20.97093 | 355 ft | 18 kts | 151° |
| 2026-05-04 15:01 | 52.17406 | 20.97128 | 352 ft | 2 kts | 196° |
| 2026-05-04 15:01 | 52.17389 | 20.97092 | 353 ft | 6 kts | 240° |
| 2026-05-04 15:02 | 52.17375 | 20.97050 | 350 ft | 0 kts | 241° |